Rechercher aéroport 
image banner adimage banner adimage banner ad
image banner ad

11CN - Shasta Rgnl Medical Center

Situé à Redding, United States

ICAO - 11CN, IATA -

Données fournies par Airmate  

Information générale

Coordonnées: N40°35'8" W122°23'16"
Élévation : 622 feet MSL.
 
Voir autres Aéroports à California

Données opérationnelles

Special qualification required
Heure actuelle UTC:
Heure actuelle locale:
Météo à : KRDD - Redding Muni ( 12 km )
METAR: KRDD 292253Z 00000KT 10SM FU CLR 42/07 A2978 RMK AO2 SLP075 T04170072
TAF: KRDD 291812Z 2918/3018 VRB04KT P6SM BKN150 FM292200 18008KT P6SM SCT150 SCT250 FM300800 VRB04KT P6SM BKN150
Voir NOTAMs / SUP AIP / TFR affectant cet aéroport [VIEW]
Fréquences de communication: [VIEW]

Pistes:

Coordonnées de l'aéroport

Adresse: Redding United States

Vue satellite de 11CN